sensor_id;sensor_type;location;lat;lon;timestamp;temperature;humidity
13808;DHT22;40769;51.512;5.494;2024-01-07T00:02:14;11.00;99.90
13808;DHT22;40769;51.512;5.494;2024-01-07T00:04:40;10.80;99.90
13808;DHT22;40769;51.512;5.494;2024-01-07T00:07:06;10.70;99.90
13808;DHT22;40769;51.512;5.494;2024-01-07T00:09:31;10.60;99.90
13808;DHT22;40769;51.512;5.494;2024-01-07T00:11:57;10.50;99.90
13808;DHT22;40769;51.512;5.494;2024-01-07T00:14:23;10.60;99.90
13808;DHT22;40769;51.512;5.494;2024-01-07T00:16:48;10.50;99.90
13808;DHT22;40769;51.512;5.494;2024-01-07T00:19:14;10.50;99.90
13808;DHT22;40769;51.512;5.494;2024-01-07T00:21:39;10.50;99.90
13808;DHT22;40769;51.512;5.494;2024-01-07T00:24:08;10.50;99.90
13808;DHT22;40769;51.512;5.494;2024-01-07T00:26:34;10.60;99.90
13808;DHT22;40769;51.512;5.494;2024-01-07T00:28:59;10.70;99.90
13808;DHT22;40769;51.512;5.494;2024-01-07T00:31:25;10.80;99.90
13808;DHT22;40769;51.512;5.494;2024-01-07T00:33:50;10.90;99.90
13808;DHT22;40769;51.512;5.494;2024-01-07T00:36:16;11.50;99.90
13808;DHT22;40769;51.512;5.494;2024-01-07T00:38:41;11.00;99.90
13808;DHT22;40769;51.512;5.494;2024-01-07T00:41:07;11.00;99.90
13808;DHT22;40769;51.512;5.494;2024-01-07T00:43:36;11.20;99.90
13808;DHT22;40769;51.512;5.494;2024-01-07T00:46:01;10.80;99.90
13808;DHT22;40769;51.512;5.494;2024-01-07T00:48:27;10.80;99.90
13808;DHT22;40769;51.512;5.494;2024-01-07T00:50:53;10.60;99.90
13808;DHT22;40769;51.512;5.494;2024-01-07T00:53:18;10.60;99.90
13808;DHT22;40769;51.512;5.494;2024-01-07T00:55:44;10.90;99.90
13808;DHT22;40769;51.512;5.494;2024-01-07T00:58:09;11.30;99.90
13808;DHT22;40769;51.512;5.494;2024-01-07T01:00:35;11.20;99.90
13808;DHT22;40769;51.512;5.494;2024-01-07T01:03:01;10.50;99.90
13808;DHT22;40769;51.512;5.494;2024-01-07T01:05:26;10.50;99.90
13808;DHT22;40769;51.512;5.494;2024-01-07T01:07:52;10.50;99.90
13808;DHT22;40769;51.512;5.494;2024-01-07T01:10:17;10.50;99.90
13808;DHT22;40769;51.512;5.494;2024-01-07T01:12:44;10.60;99.90
13808;DHT22;40769;51.512;5.494;2024-01-07T01:15:10;10.60;99.90
13808;DHT22;40769;51.512;5.494;2024-01-07T01:17:35;10.70;99.90
13808;DHT22;40769;51.512;5.494;2024-01-07T01:20:01;11.40;99.90
13808;DHT22;40769;51.512;5.494;2024-01-07T01:22:27;10.80;99.90
13808;DHT22;40769;51.512;5.494;2024-01-07T01:24:53;10.80;99.90
13808;DHT22;40769;51.512;5.494;2024-01-07T01:27:19;10.80;99.90
13808;DHT22;40769;51.512;5.494;2024-01-07T01:29:44;10.80;99.90
13808;DHT22;40769;51.512;5.494;2024-01-07T01:32:10;10.70;99.90
13808;DHT22;40769;51.512;5.494;2024-01-07T01:34:36;10.50;99.90
13808;DHT22;40769;51.512;5.494;2024-01-07T01:37:02;10.40;99.90
13808;DHT22;40769;51.512;5.494;2024-01-07T01:39:28;10.20;99.90
13808;DHT22;40769;51.512;5.494;2024-01-07T01:41:57;10.20;99.90
13808;DHT22;40769;51.512;5.494;2024-01-07T01:44:23;10.20;99.90
13808;DHT22;40769;51.512;5.494;2024-01-07T01:46:49;10.20;99.90
13808;DHT22;40769;51.512;5.494;2024-01-07T01:49:15;10.20;99.90
13808;DHT22;40769;51.512;5.494;2024-01-07T01:51:41;10.20;99.90
13808;DHT22;40769;51.512;5.494;2024-01-07T01:54:07;10.10;99.90
13808;DHT22;40769;51.512;5.494;2024-01-07T01:56:33;10.30;99.90
13808;DHT22;40769;51.512;5.494;2024-01-07T01:58:59;10.40;99.90
13808;DHT22;40769;51.512;5.494;2024-01-07T02:01:25;10.50;99.90
13808;DHT22;40769;51.512;5.494;2024-01-07T02:03:51;10.70;99.90
13808;DHT22;40769;51.512;5.494;2024-01-07T02:06:21;10.80;99.90
13808;DHT22;40769;51.512;5.494;2024-01-07T02:08:47;10.90;99.90
13808;DHT22;40769;51.512;5.494;2024-01-07T02:11:18;10.90;99.90
13808;DHT22;40769;51.512;5.494;2024-01-07T02:13:44;10.80;99.90
13808;DHT22;40769;51.512;5.494;2024-01-07T02:16:10;10.70;99.90
13808;DHT22;40769;51.512;5.494;2024-01-07T02:18:35;10.70;99.90
13808;DHT22;40769;51.512;5.494;2024-01-07T02:21:02;10.60;99.90
13808;DHT22;40769;51.512;5.494;2024-01-07T02:23:27;10.60;99.90
13808;DHT22;40769;51.512;5.494;2024-01-07T02:25:53;10.50;99.90
13808;DHT22;40769;51.512;5.494;2024-01-07T02:28:19;10.50;99.90
13808;DHT22;40769;51.512;5.494;2024-01-07T02:30:44;10.40;99.90
13808;DHT22;40769;51.512;5.494;2024-01-07T02:33:10;10.40;99.90
13808;DHT22;40769;51.512;5.494;2024-01-07T02:35:35;10.50;99.90
13808;DHT22;40769;51.512;5.494;2024-01-07T02:38:01;10.60;99.90
13808;DHT22;40769;51.512;5.494;2024-01-07T02:40:26;10.70;99.90
13808;DHT22;40769;51.512;5.494;2024-01-07T02:42:52;10.90;99.90
13808;DHT22;40769;51.512;5.494;2024-01-07T02:45:18;10.80;99.90
13808;DHT22;40769;51.512;5.494;2024-01-07T02:47:44;11.00;99.90
13808;DHT22;40769;51.512;5.494;2024-01-07T02:50:10;11.70;99.90
13808;DHT22;40769;51.512;5.494;2024-01-07T02:52:35;10.80;99.90
13808;DHT22;40769;51.512;5.494;2024-01-07T02:55:01;10.70;99.90
13808;DHT22;40769;51.512;5.494;2024-01-07T02:57:29;10.80;99.90
13808;DHT22;40769;51.512;5.494;2024-01-07T02:59:54;11.50;99.90
13808;DHT22;40769;51.512;5.494;2024-01-07T03:02:20;10.60;99.90
13808;DHT22;40769;51.512;5.494;2024-01-07T03:04:46;10.50;99.90
13808;DHT22;40769;51.512;5.494;2024-01-07T03:07:11;10.40;99.90
13808;DHT22;40769;51.512;5.494;2024-01-07T03:09:37;10.30;99.90
13808;DHT22;40769;51.512;5.494;2024-01-07T03:12:03;10.30;99.90
13808;DHT22;40769;51.512;5.494;2024-01-07T03:14:28;10.20;99.90
13808;DHT22;40769;51.512;5.494;2024-01-07T03:16:54;10.60;99.90
13808;DHT22;40769;51.512;5.494;2024-01-07T03:19:19;10.30;99.90
13808;DHT22;40769;51.512;5.494;2024-01-07T03:21:47;10.30;99.90
13808;DHT22;40769;51.512;5.494;2024-01-07T03:24:13;10.50;99.90
13808;DHT22;40769;51.512;5.494;2024-01-07T03:26:39;10.50;99.90
13808;DHT22;40769;51.512;5.494;2024-01-07T03:29:04;10.60;99.90
13808;DHT22;40769;51.512;5.494;2024-01-07T03:31:30;10.70;99.90
13808;DHT22;40769;51.512;5.494;2024-01-07T03:33:55;10.80;99.90
13808;DHT22;40769;51.512;5.494;2024-01-07T03:36:21;11.60;99.90
13808;DHT22;40769;51.512;5.494;2024-01-07T03:38:49;10.70;99.90
13808;DHT22;40769;51.512;5.494;2024-01-07T03:41:19;10.70;99.90
13808;DHT22;40769;51.512;5.494;2024-01-07T03:43:46;10.50;99.90
13808;DHT22;40769;51.512;5.494;2024-01-07T03:46:16;10.40;99.90
13808;DHT22;40769;51.512;5.494;2024-01-07T03:48:42;10.40;99.90
13808;DHT22;40769;51.512;5.494;2024-01-07T03:51:07;10.40;99.90
13808;DHT22;40769;51.512;5.494;2024-01-07T03:53:33;10.30;99.90
13808;DHT22;40769;51.512;5.494;2024-01-07T03:55:59;10.30;99.90
13808;DHT22;40769;51.512;5.494;2024-01-07T03:58:24;10.30;99.90
13808;DHT22;40769;51.512;5.494;2024-01-07T04:00:50;10.50;99.90
13808;DHT22;40769;51.512;5.494;2024-01-07T04:03:16;10.30;99.90
13808;DHT22;40769;51.512;5.494;2024-01-07T04:05:41;10.20;99.90
13808;DHT22;40769;51.512;5.494;2024-01-07T04:08:09;10.10;99.90
13808;DHT22;40769;51.512;5.494;2024-01-07T04:10:35;10.10;99.90
13808;DHT22;40769;51.512;5.494;2024-01-07T04:13:01;10.10;99.90
13808;DHT22;40769;51.512;5.494;2024-01-07T04:15:26;10.20;99.90
13808;DHT22;40769;51.512;5.494;2024-01-07T04:17:52;10.30;99.90
13808;DHT22;40769;51.512;5.494;2024-01-07T04:20:17;10.30;99.90
13808;DHT22;40769;51.512;5.494;2024-01-07T04:22:43;10.30;99.90
13808;DHT22;40769;51.512;5.494;2024-01-07T04:25:08;10.20;99.90
13808;DHT22;40769;51.512;5.494;2024-01-07T04:27:36;10.10;99.90
13808;DHT22;40769;51.512;5.494;2024-01-07T04:30:02;10.00;99.90
13808;DHT22;40769;51.512;5.494;2024-01-07T04:32:28;9.90;99.90
13808;DHT22;40769;51.512;5.494;2024-01-07T04:34:53;9.90;99.90
13808;DHT22;40769;51.512;5.494;2024-01-07T04:37:19;9.80;99.90
13808;DHT22;40769;51.512;5.494;2024-01-07T04:39:44;9.80;99.90
13808;DHT22;40769;51.512;5.494;2024-01-07T04:42:13;9.70;99.90
13808;DHT22;40769;51.512;5.494;2024-01-07T04:44:38;9.60;99.90
13808;DHT22;40769;51.512;5.494;2024-01-07T04:47:04;9.60;99.90
13808;DHT22;40769;51.512;5.494;2024-01-07T04:49:30;9.60;99.90
13808;DHT22;40769;51.512;5.494;2024-01-07T04:51:55;9.60;99.90
13808;DHT22;40769;51.512;5.494;2024-01-07T04:54:21;9.70;99.90
13808;DHT22;40769;51.512;5.494;2024-01-07T04:56:46;9.80;99.90
13808;DHT22;40769;51.512;5.494;2024-01-07T04:59:12;9.70;99.90
13808;DHT22;40769;51.512;5.494;2024-01-07T05:01:37;9.60;99.90
13808;DHT22;40769;51.512;5.494;2024-01-07T05:04:03;9.60;99.90
13808;DHT22;40769;51.512;5.494;2024-01-07T05:06:29;9.50;99.90
13808;DHT22;40769;51.512;5.494;2024-01-07T05:08:55;8.50;99.90
13808;DHT22;40769;51.512;5.494;2024-01-07T05:11:20;9.30;99.90
13808;DHT22;40769;51.512;5.494;2024-01-07T05:13:46;9.30;99.90
13808;DHT22;40769;51.512;5.494;2024-01-07T05:16:19;9.20;99.90
13808;DHT22;40769;51.512;5.494;2024-01-07T05:18:45;9.20;99.90
13808;DHT22;40769;51.512;5.494;2024-01-07T05:21:14;9.50;99.90
13808;DHT22;40769;51.512;5.494;2024-01-07T05:23:41;9.60;99.90
13808;DHT22;40769;51.512;5.494;2024-01-07T05:26:06;9.70;99.90
13808;DHT22;40769;51.512;5.494;2024-01-07T05:28:32;9.70;99.90
13808;DHT22;40769;51.512;5.494;2024-01-07T05:30:57;9.70;99.90
13808;DHT22;40769;51.512;5.494;2024-01-07T05:33:23;9.80;99.90
13808;DHT22;40769;51.512;5.494;2024-01-07T05:35:49;9.60;99.90
13808;DHT22;40769;51.512;5.494;2024-01-07T05:38:14;9.60;99.90
13808;DHT22;40769;51.512;5.494;2024-01-07T05:40:40;9.50;99.90
13808;DHT22;40769;51.512;5.494;2024-01-07T05:43:05;9.40;99.90
13808;DHT22;40769;51.512;5.494;2024-01-07T05:45:31;9.30;99.90
13808;DHT22;40769;51.512;5.494;2024-01-07T05:47:57;9.70;99.90
13808;DHT22;40769;51.512;5.494;2024-01-07T05:50:22;9.20;99.90
13808;DHT22;40769;51.512;5.494;2024-01-07T05:52:48;9.20;99.90
13808;DHT22;40769;51.512;5.494;2024-01-07T05:55:16;9.20;99.90
13808;DHT22;40769;51.512;5.494;2024-01-07T05:57:43;9.10;99.90
13808;DHT22;40769;51.512;5.494;2024-01-07T06:00:09;9.10;99.90
13808;DHT22;40769;51.512;5.494;2024-01-07T06:02:39;9.20;99.90
13808;DHT22;40769;51.512;5.494;2024-01-07T06:05:05;9.20;99.90
13808;DHT22;40769;51.512;5.494;2024-01-07T06:07:31;9.20;99.90
13808;DHT22;40769;51.512;5.494;2024-01-07T06:09:57;9.30;99.90
13808;DHT22;40769;51.512;5.494;2024-01-07T06:12:22;9.50;99.90
13808;DHT22;40769;51.512;5.494;2024-01-07T06:14:48;9.40;99.90
13808;DHT22;40769;51.512;5.494;2024-01-07T06:17:13;9.40;99.90
13808;DHT22;40769;51.512;5.494;2024-01-07T06:19:39;9.30;99.90
13808;DHT22;40769;51.512;5.494;2024-01-07T06:22:04;9.30;99.90
13808;DHT22;40769;51.512;5.494;2024-01-07T06:24:30;9.30;99.90
13808;DHT22;40769;51.512;5.494;2024-01-07T06:26:56;9.20;99.90
13808;DHT22;40769;51.512;5.494;2024-01-07T06:29:21;9.40;99.90
13808;DHT22;40769;51.512;5.494;2024-01-07T06:31:47;9.10;99.90
13808;DHT22;40769;51.512;5.494;2024-01-07T06:34:14;9.00;99.90
13808;DHT22;40769;51.512;5.494;2024-01-07T06:36:40;9.00;99.90
13808;DHT22;40769;51.512;5.494;2024-01-07T06:39:12;8.90;99.90
13808;DHT22;40769;51.512;5.494;2024-01-07T06:41:38;9.00;99.90
13808;DHT22;40769;51.512;5.494;2024-01-07T06:44:03;9.00;99.90
13808;DHT22;40769;51.512;5.494;2024-01-07T06:46:29;9.10;99.90
13808;DHT22;40769;51.512;5.494;2024-01-07T06:48:55;9.90;99.90
13808;DHT22;40769;51.512;5.494;2024-01-07T06:51:20;9.40;99.90
13808;DHT22;40769;51.512;5.494;2024-01-07T06:53:46;10.00;99.90
13808;DHT22;40769;51.512;5.494;2024-01-07T06:56:11;9.70;99.90
13808;DHT22;40769;51.512;5.494;2024-01-07T06:58:38;9.70;99.90
13808;DHT22;40769;51.512;5.494;2024-01-07T07:01:06;9.70;99.90
13808;DHT22;40769;51.512;5.494;2024-01-07T07:03:32;9.40;99.90
13808;DHT22;40769;51.512;5.494;2024-01-07T07:05:58;9.50;99.90
13808;DHT22;40769;51.512;5.494;2024-01-07T07:08:23;9.10;99.90
13808;DHT22;40769;51.512;5.494;2024-01-07T07:10:49;8.90;99.90
13808;DHT22;40769;51.512;5.494;2024-01-07T07:13:14;8.70;99.90
13808;DHT22;40769;51.512;5.494;2024-01-07T07:15:40;8.60;99.90
13808;DHT22;40769;51.512;5.494;2024-01-07T07:18:06;8.50;99.90
13808;DHT22;40769;51.512;5.494;2024-01-07T07:20:31;8.40;99.90
13808;DHT22;40769;51.512;5.494;2024-01-07T07:22:57;8.40;99.90
13808;DHT22;40769;51.512;5.494;2024-01-07T07:25:22;8.40;99.90
13808;DHT22;40769;51.512;5.494;2024-01-07T07:27:48;8.40;99.90
13808;DHT22;40769;51.512;5.494;2024-01-07T07:30:14;8.30;99.90
13808;DHT22;40769;51.512;5.494;2024-01-07T07:32:40;8.30;99.90
13808;DHT22;40769;51.512;5.494;2024-01-07T07:35:09;8.20;99.90
13808;DHT22;40769;51.512;5.494;2024-01-07T07:37:35;7.20;99.90
13808;DHT22;40769;51.512;5.494;2024-01-07T07:40:00;8.10;99.90
13808;DHT22;40769;51.512;5.494;2024-01-07T07:42:26;8.00;99.90
13808;DHT22;40769;51.512;5.494;2024-01-07T07:44:52;7.90;99.90
13808;DHT22;40769;51.512;5.494;2024-01-07T07:47:18;7.90;99.90
13808;DHT22;40769;51.512;5.494;2024-01-07T07:49:43;7.80;99.90
13808;DHT22;40769;51.512;5.494;2024-01-07T07:52:09;7.80;99.90
13808;DHT22;40769;51.512;5.494;2024-01-07T07:54:37;7.80;99.90
13808;DHT22;40769;51.512;5.494;2024-01-07T07:57:03;7.90;99.90
13808;DHT22;40769;51.512;5.494;2024-01-07T07:59:29;7.90;99.90
13808;DHT22;40769;51.512;5.494;2024-01-07T08:01:54;8.00;99.90
13808;DHT22;40769;51.512;5.494;2024-01-07T08:04:20;8.10;99.90
13808;DHT22;40769;51.512;5.494;2024-01-07T08:06:46;8.10;99.90
13808;DHT22;40769;51.512;5.494;2024-01-07T08:09:11;8.10;99.90
13808;DHT22;40769;51.512;5.494;2024-01-07T08:11:37;8.00;99.90
13808;DHT22;40769;51.512;5.494;2024-01-07T08:14:02;8.00;99.90
13808;DHT22;40769;51.512;5.494;2024-01-07T08:16:28;8.10;99.90
13808;DHT22;40769;51.512;5.494;2024-01-07T08:18:54;8.20;99.90
13808;DHT22;40769;51.512;5.494;2024-01-07T08:21:22;8.20;99.90
13808;DHT22;40769;51.512;5.494;2024-01-07T08:23:49;8.40;99.90
13808;DHT22;40769;51.512;5.494;2024-01-07T08:26:20;8.30;99.90
13808;DHT22;40769;51.512;5.494;2024-01-07T08:28:46;8.30;99.90
13808;DHT22;40769;51.512;5.494;2024-01-07T08:31:12;8.30;99.90
13808;DHT22;40769;51.512;5.494;2024-01-07T08:33:38;8.30;99.90
13808;DHT22;40769;51.512;5.494;2024-01-07T08:36:04;8.20;99.90
13808;DHT22;40769;51.512;5.494;2024-01-07T08:38:30;8.20;99.90
13808;DHT22;40769;51.512;5.494;2024-01-07T08:40:56;8.10;99.90
13808;DHT22;40769;51.512;5.494;2024-01-07T08:43:21;8.00;99.90
13808;DHT22;40769;51.512;5.494;2024-01-07T08:45:47;7.80;99.90
13808;DHT22;40769;51.512;5.494;2024-01-07T08:48:13;7.70;99.90
13808;DHT22;40769;51.512;5.494;2024-01-07T08:50:38;7.60;99.90
13808;DHT22;40769;51.512;5.494;2024-01-07T08:53:04;7.50;99.90
13808;DHT22;40769;51.512;5.494;2024-01-07T08:55:30;7.50;99.90
13808;DHT22;40769;51.512;5.494;2024-01-07T08:57:56;7.60;99.90
13808;DHT22;40769;51.512;5.494;2024-01-07T09:00:21;7.40;99.90
13808;DHT22;40769;51.512;5.494;2024-01-07T09:02:51;7.50;99.90
13808;DHT22;40769;51.512;5.494;2024-01-07T09:05:17;7.40;99.90
13808;DHT22;40769;51.512;5.494;2024-01-07T09:07:42;7.80;99.90
13808;DHT22;40769;51.512;5.494;2024-01-07T09:10:08;7.70;99.90
13808;DHT22;40769;51.512;5.494;2024-01-07T09:12:38;7.40;99.90
13808;DHT22;40769;51.512;5.494;2024-01-07T09:15:05;7.60;99.90
13808;DHT22;40769;51.512;5.494;2024-01-07T09:17:36;7.50;99.90
13808;DHT22;40769;51.512;5.494;2024-01-07T09:20:04;7.60;99.90
13808;DHT22;40769;51.512;5.494;2024-01-07T09:22:32;7.80;99.90
13808;DHT22;40769;51.512;5.494;2024-01-07T09:24:58;7.80;99.90
13808;DHT22;40769;51.512;5.494;2024-01-07T09:27:24;7.80;99.90
13808;DHT22;40769;51.512;5.494;2024-01-07T09:29:49;7.90;99.90
13808;DHT22;40769;51.512;5.494;2024-01-07T09:32:15;7.80;99.90
13808;DHT22;40769;51.512;5.494;2024-01-07T09:34:41;7.80;99.90
13808;DHT22;40769;51.512;5.494;2024-01-07T09:37:06;7.80;99.90
13808;DHT22;40769;51.512;5.494;2024-01-07T09:39:32;7.80;99.90
13808;DHT22;40769;51.512;5.494;2024-01-07T09:41:58;7.70;99.90
13808;DHT22;40769;51.512;5.494;2024-01-07T09:44:25;7.60;99.90
13808;DHT22;40769;51.512;5.494;2024-01-07T09:46:51;7.60;99.90
13808;DHT22;40769;51.512;5.494;2024-01-07T09:49:17;7.50;99.90
13808;DHT22;40769;51.512;5.494;2024-01-07T09:51:45;7.30;99.90
13808;DHT22;40769;51.512;5.494;2024-01-07T09:54:15;7.30;99.90
13808;DHT22;40769;51.512;5.494;2024-01-07T09:56:55;7.40;99.90
13808;DHT22;40769;51.512;5.494;2024-01-07T09:59:27;7.20;99.90
13808;DHT22;40769;51.512;5.494;2024-01-07T10:01:53;7.20;99.90
13808;DHT22;40769;51.512;5.494;2024-01-07T10:04:19;7.10;99.90
13808;DHT22;40769;51.512;5.494;2024-01-07T10:06:44;7.80;99.90
13808;DHT22;40769;51.512;5.494;2024-01-07T10:09:12;7.00;99.90
13808;DHT22;40769;51.512;5.494;2024-01-07T10:11:38;7.00;99.90
13808;DHT22;40769;51.512;5.494;2024-01-07T10:14:05;7.50;99.90
13808;DHT22;40769;51.512;5.494;2024-01-07T10:16:31;7.20;99.90
13808;DHT22;40769;51.512;5.494;2024-01-07T10:18:58;7.30;99.90
13808;DHT22;40769;51.512;5.494;2024-01-07T10:21:24;7.40;99.90
13808;DHT22;40769;51.512;5.494;2024-01-07T10:23:50;7.30;99.90
13808;DHT22;40769;51.512;5.494;2024-01-07T10:26:16;7.30;99.90
13808;DHT22;40769;51.512;5.494;2024-01-07T10:28:41;7.30;99.90
13808;DHT22;40769;51.512;5.494;2024-01-07T10:31:09;8.50;99.90
13808;DHT22;40769;51.512;5.494;2024-01-07T10:33:34;7.30;99.90
13808;DHT22;40769;51.512;5.494;2024-01-07T10:36:06;7.40;99.90
13808;DHT22;40769;51.512;5.494;2024-01-07T10:38:35;7.50;99.90
13808;DHT22;40769;51.512;5.494;2024-01-07T10:41:01;7.50;99.90
13808;DHT22;40769;51.512;5.494;2024-01-07T10:43:30;7.80;99.90
13808;DHT22;40769;51.512;5.494;2024-01-07T10:46:00;7.40;99.90
13808;DHT22;40769;51.512;5.494;2024-01-07T10:48:30;7.30;99.90
13808;DHT22;40769;51.512;5.494;2024-01-07T10:50:58;8.20;99.90
13808;DHT22;40769;51.512;5.494;2024-01-07T10:53:27;7.10;99.90
13808;DHT22;40769;51.512;5.494;2024-01-07T10:56:03;7.10;99.90
13808;DHT22;40769;51.512;5.494;2024-01-07T10:58:32;7.10;99.90
13808;DHT22;40769;51.512;5.494;2024-01-07T11:00:59;7.20;99.90
13808;DHT22;40769;51.512;5.494;2024-01-07T11:03:38;7.40;99.90
13808;DHT22;40769;51.512;5.494;2024-01-07T11:06:11;7.50;99.90
13808;DHT22;40769;51.512;5.494;2024-01-07T11:08:58;7.50;99.90
13808;DHT22;40769;51.512;5.494;2024-01-07T11:11:35;7.50;99.90
13808;DHT22;40769;51.512;5.494;2024-01-07T11:14:02;7.40;99.90
13808;DHT22;40769;51.512;5.494;2024-01-07T11:16:43;7.40;99.90
13808;DHT22;40769;51.512;5.494;2024-01-07T11:19:12;7.40;99.90
13808;DHT22;40769;51.512;5.494;2024-01-07T11:21:38;7.50;99.90
13808;DHT22;40769;51.512;5.494;2024-01-07T11:24:04;8.80;99.90
13808;DHT22;40769;51.512;5.494;2024-01-07T11:26:29;7.70;99.90
13808;DHT22;40769;51.512;5.494;2024-01-07T11:28:57;7.80;99.90
13808;DHT22;40769;51.512;5.494;2024-01-07T11:34:07;7.90;99.90
13808;DHT22;40769;51.512;5.494;2024-01-07T11:36:35;8.70;99.90
13808;DHT22;40769;51.512;5.494;2024-01-07T11:39:02;8.00;99.90
13808;DHT22;40769;51.512;5.494;2024-01-07T11:41:31;8.00;99.90
13808;DHT22;40769;51.512;5.494;2024-01-07T11:43:58;8.10;99.90
13808;DHT22;40769;51.512;5.494;2024-01-07T11:46:25;8.00;99.90
13808;DHT22;40769;51.512;5.494;2024-01-07T11:48:56;8.00;99.90
13808;DHT22;40769;51.512;5.494;2024-01-07T11:51:26;7.90;99.90
13808;DHT22;40769;51.512;5.494;2024-01-07T11:53:52;7.90;99.90
13808;DHT22;40769;51.512;5.494;2024-01-07T11:56:18;8.00;99.90
13808;DHT22;40769;51.512;5.494;2024-01-07T11:58:44;8.40;99.90
13808;DHT22;40769;51.512;5.494;2024-01-07T12:01:10;8.10;99.90
13808;DHT22;40769;51.512;5.494;2024-01-07T12:03:36;8.30;99.90
13808;DHT22;40769;51.512;5.494;2024-01-07T12:06:02;8.30;99.90
13808;DHT22;40769;51.512;5.494;2024-01-07T12:08:28;8.10;99.90
13808;DHT22;40769;51.512;5.494;2024-01-07T12:10:56;7.70;99.90
13808;DHT22;40769;51.512;5.494;2024-01-07T12:13:21;8.30;99.90
13808;DHT22;40769;51.512;5.494;2024-01-07T12:15:47;7.90;99.90
13808;DHT22;40769;51.512;5.494;2024-01-07T12:18:14;7.90;99.90
13808;DHT22;40769;51.512;5.494;2024-01-07T12:20:40;7.90;99.90
13808;DHT22;40769;51.512;5.494;2024-01-07T12:23:10;8.00;99.90
13808;DHT22;40769;51.512;5.494;2024-01-07T12:25:36;8.00;99.90
13808;DHT22;40769;51.512;5.494;2024-01-07T12:28:06;8.00;99.90
13808;DHT22;40769;51.512;5.494;2024-01-07T12:30:32;8.00;99.90
13808;DHT22;40769;51.512;5.494;2024-01-07T12:32:57;8.20;99.90
13808;DHT22;40769;51.512;5.494;2024-01-07T12:35:26;7.90;99.90
13808;DHT22;40769;51.512;5.494;2024-01-07T12:37:53;7.80;99.90
13808;DHT22;40769;51.512;5.494;2024-01-07T12:40:18;7.80;99.90
13808;DHT22;40769;51.512;5.494;2024-01-07T12:42:45;8.40;99.90
13808;DHT22;40769;51.512;5.494;2024-01-07T12:45:13;7.80;99.90
13808;DHT22;40769;51.512;5.494;2024-01-07T12:47:42;7.80;99.90
13808;DHT22;40769;51.512;5.494;2024-01-07T12:50:09;7.70;99.90
13808;DHT22;40769;51.512;5.494;2024-01-07T12:52:39;8.50;99.90
13808;DHT22;40769;51.512;5.494;2024-01-07T12:55:06;7.60;99.90
13808;DHT22;40769;51.512;5.494;2024-01-07T12:57:33;7.60;99.90
13808;DHT22;40769;51.512;5.494;2024-01-07T12:59:58;7.60;99.90
13808;DHT22;40769;51.512;5.494;2024-01-07T13:02:24;7.60;99.90
13808;DHT22;40769;51.512;5.494;2024-01-07T13:04:51;7.70;99.90
13808;DHT22;40769;51.512;5.494;2024-01-07T13:07:16;7.80;99.90
13808;DHT22;40769;51.512;5.494;2024-01-07T13:09:42;7.90;99.90
13808;DHT22;40769;51.512;5.494;2024-01-07T13:12:10;7.90;99.90
13808;DHT22;40769;51.512;5.494;2024-01-07T13:14:36;7.30;99.90
13808;DHT22;40769;51.512;5.494;2024-01-07T13:17:01;7.70;99.90
13808;DHT22;40769;51.512;5.494;2024-01-07T13:19:27;7.70;99.90
13808;DHT22;40769;51.512;5.494;2024-01-07T13:21:53;7.60;99.90
13808;DHT22;40769;51.512;5.494;2024-01-07T13:24:21;7.70;99.90
13808;DHT22;40769;51.512;5.494;2024-01-07T13:26:49;7.60;99.90
13808;DHT22;40769;51.512;5.494;2024-01-07T13:29:15;7.50;99.90
13808;DHT22;40769;51.512;5.494;2024-01-07T13:31:40;7.40;99.90
13808;DHT22;40769;51.512;5.494;2024-01-07T13:34:06;7.40;99.90
13808;DHT22;40769;51.512;5.494;2024-01-07T13:36:32;7.20;99.90
13808;DHT22;40769;51.512;5.494;2024-01-07T13:38:57;7.20;99.90
13808;DHT22;40769;51.512;5.494;2024-01-07T13:41:23;7.00;99.90
13808;DHT22;40769;51.512;5.494;2024-01-07T13:43:54;6.90;99.90
13808;DHT22;40769;51.512;5.494;2024-01-07T13:46:21;7.00;99.90
13808;DHT22;40769;51.512;5.494;2024-01-07T13:48:48;6.90;99.90
13808;DHT22;40769;51.512;5.494;2024-01-07T13:51:14;6.90;99.90
13808;DHT22;40769;51.512;5.494;2024-01-07T13:53:40;6.80;99.90
13808;DHT22;40769;51.512;5.494;2024-01-07T13:56:06;6.70;99.90
13808;DHT22;40769;51.512;5.494;2024-01-07T13:58:32;6.60;99.90
13808;DHT22;40769;51.512;5.494;2024-01-07T14:00:58;6.50;99.90
13808;DHT22;40769;51.512;5.494;2024-01-07T14:03:23;6.50;99.90
13808;DHT22;40769;51.512;5.494;2024-01-07T14:05:49;6.40;99.90
13808;DHT22;40769;51.512;5.494;2024-01-07T14:08:16;6.50;99.90
13808;DHT22;40769;51.512;5.494;2024-01-07T14:10:42;6.50;99.90
13808;DHT22;40769;51.512;5.494;2024-01-07T14:13:07;6.60;99.90
13808;DHT22;40769;51.512;5.494;2024-01-07T14:15:34;7.70;99.90
13808;DHT22;40769;51.512;5.494;2024-01-07T14:18:00;6.80;99.90
13808;DHT22;40769;51.512;5.494;2024-01-07T14:20:25;6.90;99.90
13808;DHT22;40769;51.512;5.494;2024-01-07T14:22:54;7.00;99.90
13808;DHT22;40769;51.512;5.494;2024-01-07T14:25:19;6.30;99.90
13808;DHT22;40769;51.512;5.494;2024-01-07T14:27:45;7.20;99.90
13808;DHT22;40769;51.512;5.494;2024-01-07T14:30:11;7.20;99.90
13808;DHT22;40769;51.512;5.494;2024-01-07T14:32:39;7.20;99.90
13808;DHT22;40769;51.512;5.494;2024-01-07T14:35:05;7.20;99.90
13808;DHT22;40769;51.512;5.494;2024-01-07T14:37:31;7.10;99.90
13808;DHT22;40769;51.512;5.494;2024-01-07T14:39:56;7.10;99.90
13808;DHT22;40769;51.512;5.494;2024-01-07T14:42:22;7.00;99.90
13808;DHT22;40769;51.512;5.494;2024-01-07T14:44:47;7.10;99.90
13808;DHT22;40769;51.512;5.494;2024-01-07T14:47:13;7.10;99.90
13808;DHT22;40769;51.512;5.494;2024-01-07T14:49:39;7.00;99.90
13808;DHT22;40769;51.512;5.494;2024-01-07T14:52:05;6.90;99.90
13808;DHT22;40769;51.512;5.494;2024-01-07T14:54:31;6.80;99.90
13808;DHT22;40769;51.512;5.494;2024-01-07T14:56:58;6.80;99.90
13808;DHT22;40769;51.512;5.494;2024-01-07T14:59:24;6.70;99.90
13808;DHT22;40769;51.512;5.494;2024-01-07T15:01:50;6.60;99.90
13808;DHT22;40769;51.512;5.494;2024-01-07T15:04:17;6.60;99.90
13808;DHT22;40769;51.512;5.494;2024-01-07T15:06:43;6.50;99.90
13808;DHT22;40769;51.512;5.494;2024-01-07T15:09:10;6.30;99.90
13808;DHT22;40769;51.512;5.494;2024-01-07T15:11:36;6.20;99.90
13808;DHT22;40769;51.512;5.494;2024-01-07T15:14:07;6.20;99.90
13808;DHT22;40769;51.512;5.494;2024-01-07T15:16:35;6.20;99.90
13808;DHT22;40769;51.512;5.494;2024-01-07T15:19:01;6.20;99.90
13808;DHT22;40769;51.512;5.494;2024-01-07T15:21:27;6.20;99.90
13808;DHT22;40769;51.512;5.494;2024-01-07T15:23:53;6.20;99.90
13808;DHT22;40769;51.512;5.494;2024-01-07T15:26:18;6.10;99.90
13808;DHT22;40769;51.512;5.494;2024-01-07T15:28:44;6.00;99.90
13808;DHT22;40769;51.512;5.494;2024-01-07T15:31:09;6.00;99.90
13808;DHT22;40769;51.512;5.494;2024-01-07T15:33:35;5.90;99.90
13808;DHT22;40769;51.512;5.494;2024-01-07T15:36:04;5.90;99.90
13808;DHT22;40769;51.512;5.494;2024-01-07T15:38:30;5.80;99.90
13808;DHT22;40769;51.512;5.494;2024-01-07T15:40:55;5.80;99.90